createdAt,value
2022-12-01T00:02:06.917Z,13.19
2022-12-01T00:04:51.879Z,13.19
2022-12-01T00:07:36.804Z,14.01
2022-12-01T00:10:21.754Z,13.61
2022-12-01T00:13:06.641Z,14.66
2022-12-01T00:15:51.553Z,14.33
2022-12-01T00:18:36.429Z,14.26
2022-12-01T00:21:21.308Z,14.89
2022-12-01T00:24:06.127Z,14.94
2022-12-01T00:26:51.158Z,14.76
2022-12-01T00:29:36.080Z,14.48
2022-12-01T00:32:20.995Z,14.37
2022-12-01T00:35:06.005Z,13.94
2022-12-01T00:37:50.882Z,14.78
2022-12-01T00:40:35.831Z,14.39
2022-12-01T00:43:20.653Z,14.31
2022-12-01T00:46:05.775Z,14.41
2022-12-01T00:48:50.728Z,13.94
2022-12-01T00:51:35.719Z,14.26
2022-12-01T00:54:20.626Z,14.16
2022-12-01T00:57:05.749Z,14.39
2022-12-01T00:59:50.989Z,13.75
2022-12-01T01:02:36.148Z,13.96
2022-12-01T01:05:21.239Z,14.23
2022-12-01T01:08:06.156Z,13.47
2022-12-01T01:10:51.027Z,13.62
2022-12-01T01:13:35.825Z,13.73
2022-12-01T01:16:20.784Z,13.94
2022-12-01T01:19:05.561Z,14.68
2022-12-01T01:21:50.405Z,14.43
2022-12-01T01:24:35.458Z,15.10
2022-12-01T01:27:20.330Z,15.03
2022-12-01T01:30:05.240Z,15.13
2022-12-01T01:32:50.149Z,15.15
2022-12-01T01:35:35.057Z,15.54
2022-12-01T01:38:19.929Z,14.75
2022-12-01T01:41:04.949Z,15.77
2022-12-01T01:43:49.832Z,15.11
2022-12-01T01:46:34.807Z,15.79
2022-12-01T01:49:20.188Z,15.28
2022-12-01T01:52:05.140Z,15.85
2022-12-01T01:54:50.049Z,16.05
2022-12-01T01:57:34.971Z,15.58
2022-12-01T02:00:19.859Z,15.99
2022-12-01T02:03:04.725Z,15.84
2022-12-01T02:05:49.717Z,16.52
2022-12-01T02:08:34.625Z,15.95
2022-12-01T02:11:19.394Z,16.20
2022-12-01T02:14:04.426Z,16.15
2022-12-01T02:16:49.380Z,15.74
2022-12-01T02:19:34.249Z,15.83
2022-12-01T02:22:19.112Z,15.70
2022-12-01T02:25:03.956Z,15.73
2022-12-01T02:27:48.833Z,15.39
2022-12-01T02:30:33.683Z,15.18
2022-12-01T02:33:18.623Z,15.23
2022-12-01T02:36:03.525Z,15.16
2022-12-01T02:38:48.434Z,14.35
2022-12-01T02:41:33.373Z,14.63
2022-12-01T02:44:18.321Z,14.50
2022-12-01T02:47:03.158Z,14.50
2022-12-01T02:49:48.546Z,14.38
2022-12-01T02:52:33.976Z,14.14
2022-12-01T02:55:18.945Z,14.44
2022-12-01T02:58:04.084Z,14.44
2022-12-01T03:00:48.884Z,14.43
2022-12-01T03:03:33.956Z,14.05
2022-12-01T03:06:18.779Z,14.29
2022-12-01T03:09:03.634Z,14.94
2022-12-01T03:11:48.404Z,14.67
2022-12-01T03:14:33.361Z,14.07
2022-12-01T03:17:18.136Z,14.96
2022-12-01T03:20:03.042Z,14.06
2022-12-01T03:22:47.930Z,13.99
2022-12-01T03:25:32.861Z,14.64
2022-12-01T03:28:22.096Z,14.04
2022-12-01T03:31:07.751Z,13.28
2022-12-01T03:33:52.616Z,13.86
2022-12-01T03:36:37.531Z,13.44
2022-12-01T03:39:22.368Z,13.69
2022-12-01T03:42:07.281Z,13.36
2022-12-01T03:44:52.120Z,12.84
2022-12-01T03:47:37.065Z,12.39
2022-12-01T03:50:21.973Z,13.28
2022-12-01T03:53:06.857Z,12.32
2022-12-01T03:55:51.714Z,13.11
2022-12-01T03:58:36.671Z,12.70
2022-12-01T04:01:21.614Z,12.84
2022-12-01T04:04:06.559Z,13.37
2022-12-01T04:06:51.563Z,13.09
2022-12-01T04:09:36.483Z,13.07
2022-12-01T04:12:21.539Z,12.94
2022-12-01T04:15:06.504Z,12.87
2022-12-01T04:17:51.420Z,13.43
2022-12-01T04:20:36.474Z,12.93
2022-12-01T04:23:21.338Z,12.66
2022-12-01T04:26:09.992Z,12.77
2022-12-01T04:28:57.856Z,13.36
2022-12-01T04:31:42.740Z,13.25
2022-12-01T04:34:27.563Z,12.99
2022-12-01T04:37:12.482Z,13.15
2022-12-01T04:39:57.373Z,12.87
2022-12-01T04:45:27.066Z,11.36
2022-12-01T04:48:11.992Z,11.37
2022-12-01T04:50:56.917Z,11.02
2022-12-01T04:53:42.116Z,11.25
2022-12-01T04:56:26.946Z,11.37
2022-12-01T04:59:11.761Z,11.62
2022-12-01T05:01:56.632Z,11.10
2022-12-01T05:04:41.572Z,11.38
2022-12-01T05:07:26.521Z,11.40
2022-12-01T05:10:11.325Z,11.09
2022-12-01T05:12:56.360Z,11.11
2022-12-01T05:15:41.245Z,11.44
2022-12-01T05:18:26.291Z,11.12
2022-12-01T05:21:11.329Z,12.16
2022-12-01T05:23:56.242Z,11.70
2022-12-01T05:26:41.318Z,11.41
2022-12-01T05:29:26.188Z,11.88
2022-12-01T05:32:11.111Z,12.01
2022-12-01T05:34:56.057Z,12.09
2022-12-01T05:37:41.294Z,12.02
2022-12-01T05:40:26.115Z,12.54
2022-12-01T05:43:11.087Z,12.33
2022-12-01T05:45:56.055Z,12.54
2022-12-01T05:48:41.445Z,13.05
2022-12-01T05:51:26.215Z,13.07
2022-12-01T05:54:11.152Z,12.82
2022-12-01T05:56:56.265Z,12.93
2022-12-01T05:59:41.085Z,12.47
2022-12-01T06:02:26.204Z,12.61
2022-12-01T06:05:11.059Z,12.59
2022-12-01T06:07:56.004Z,12.94
2022-12-01T06:10:40.756Z,12.65
2022-12-01T06:13:25.692Z,12.38
2022-12-01T06:16:10.595Z,13.00
2022-12-01T06:18:55.514Z,12.64
2022-12-01T06:21:40.379Z,12.29
2022-12-01T06:24:25.173Z,11.46
2022-12-01T06:27:10.205Z,11.12
2022-12-01T06:29:55.154Z,10.56
2022-12-01T06:32:40.294Z,10.75
2022-12-01T06:35:25.242Z,10.92
2022-12-01T06:38:10.598Z,10.76
2022-12-01T06:40:55.996Z,10.84
2022-12-01T06:43:40.910Z,10.60
2022-12-01T06:46:26.081Z,10.77
2022-12-01T06:49:11.299Z,11.65
2022-12-01T06:51:56.304Z,11.47
2022-12-01T06:54:41.225Z,11.23
2022-12-01T06:57:26.655Z,11.80
2022-12-01T07:00:12.033Z,12.06
2022-12-01T07:02:57.463Z,11.92
2022-12-01T07:05:42.293Z,11.93
2022-12-01T07:08:27.145Z,11.98
2022-12-01T07:11:12.069Z,11.89
2022-12-01T07:13:56.939Z,12.15
2022-12-01T07:16:41.840Z,11.99
2022-12-01T07:19:26.564Z,12.16
2022-12-01T07:22:11.322Z,11.88
2022-12-01T07:24:56.313Z,11.87
2022-12-01T07:27:41.233Z,11.93
2022-12-01T07:30:28.637Z,11.84
2022-12-01T07:33:13.598Z,12.08
2022-12-01T07:35:58.819Z,11.66
2022-12-01T07:38:43.804Z,12.00
2022-12-01T07:41:28.538Z,12.02
2022-12-01T07:44:13.640Z,12.22
2022-12-01T07:46:58.453Z,12.08
2022-12-01T07:49:43.499Z,11.75
2022-12-01T07:52:28.377Z,12.07
2022-12-01T07:55:13.242Z,11.87
2022-12-01T07:57:57.946Z,11.91
2022-12-01T08:00:42.955Z,11.78
2022-12-01T08:03:27.781Z,12.24
2022-12-01T08:06:12.635Z,11.99
2022-12-01T08:08:57.698Z,11.78
2022-12-01T08:11:42.440Z,11.53
2022-12-01T08:14:27.381Z,11.47
2022-12-01T08:17:12.210Z,11.37
2022-12-01T08:19:57.122Z,11.21
2022-12-01T08:22:41.968Z,10.79
2022-12-01T08:25:26.960Z,10.88
2022-12-01T08:28:11.893Z,11.04
2022-12-01T08:30:56.988Z,11.18
2022-12-01T08:33:41.862Z,11.01
2022-12-01T08:36:26.676Z,10.72
2022-12-01T08:39:11.705Z,10.16
2022-12-01T08:41:56.489Z,10.57
2022-12-01T08:44:41.433Z,10.53
2022-12-01T08:47:26.666Z,10.36
2022-12-01T08:50:11.546Z,10.40
2022-12-01T08:52:56.493Z,10.32
2022-12-01T08:55:41.302Z,9.67
2022-12-01T08:58:26.276Z,10.30
2022-12-01T09:01:11.148Z,9.73
2022-12-01T09:03:56.257Z,10.13
2022-12-01T09:06:41.109Z,9.86
2022-12-01T09:09:26.072Z,9.98
2022-12-01T09:12:10.832Z,9.58
2022-12-01T09:14:55.913Z,10.08
2022-12-01T09:17:40.708Z,10.15
2022-12-01T09:20:25.536Z,9.81
2022-12-01T09:23:10.431Z,10.20
2022-12-01T09:25:55.271Z,9.68
2022-12-01T09:28:40.269Z,9.61
2022-12-01T09:31:25.273Z,9.65
2022-12-01T09:34:10.184Z,9.69
2022-12-01T09:36:55.018Z,9.20
2022-12-01T09:39:39.924Z,9.31
2022-12-01T09:42:24.723Z,9.21
2022-12-01T09:45:09.556Z,9.12
2022-12-01T09:47:54.439Z,8.87
2022-12-01T09:50:39.232Z,8.73
2022-12-01T09:53:24.178Z,8.63
2022-12-01T09:56:12.925Z,9.07
2022-12-01T09:58:58.087Z,9.15
2022-12-01T10:01:42.952Z,9.36
2022-12-01T10:04:27.824Z,9.34
2022-12-01T10:07:12.736Z,9.92
2022-12-01T10:09:57.478Z,9.85
2022-12-01T10:12:42.500Z,10.49
2022-12-01T10:15:27.369Z,10.24
2022-12-01T10:18:12.349Z,10.98
2022-12-01T10:20:57.331Z,10.46
2022-12-01T10:23:42.088Z,9.96
2022-12-01T10:26:27.159Z,10.90
2022-12-01T10:29:12.025Z,10.50
2022-12-01T10:31:57.203Z,10.40
2022-12-01T10:34:42.388Z,10.02
2022-12-01T10:37:27.458Z,10.53
2022-12-01T10:40:12.415Z,10.38
2022-12-01T10:42:57.478Z,10.42
2022-12-01T10:45:42.443Z,9.79
2022-12-01T10:48:27.957Z,10.19
2022-12-01T10:51:12.920Z,10.68
2022-12-01T10:53:57.916Z,10.46
2022-12-01T10:56:42.878Z,10.83
2022-12-01T10:59:27.688Z,11.09
2022-12-01T11:02:12.879Z,11.41
2022-12-01T11:04:57.952Z,11.71
2022-12-01T11:07:42.927Z,11.58
2022-12-01T11:10:27.769Z,11.97
2022-12-01T11:13:12.668Z,11.69
2022-12-01T11:15:57.675Z,12.02
2022-12-01T11:18:42.776Z,12.45
2022-12-01T11:21:27.608Z,12.57
2022-12-01T11:24:12.662Z,12.24
2022-12-01T11:26:57.950Z,12.87
2022-12-01T11:29:43.121Z,12.48
2022-12-01T11:32:27.844Z,12.27
2022-12-01T11:35:12.709Z,12.35
2022-12-01T11:38:28.189Z,12.65
2022-12-01T11:41:02.924Z,12.46
2022-12-01T11:44:00.813Z,12.15
2022-12-01T11:46:55.781Z,12.37
2022-12-01T11:49:52.409Z,12.87
2022-12-01T11:52:37.480Z,12.45
2022-12-01T11:55:22.381Z,12.54
2022-12-01T11:58:07.613Z,12.63
2022-12-01T12:00:52.490Z,12.31
2022-12-01T12:03:37.437Z,12.02
2022-12-01T12:09:27.229Z,12.74
2022-12-01T12:12:12.381Z,12.75
2022-12-01T12:14:57.022Z,12.65
2022-12-01T12:17:41.962Z,13.14
2022-12-01T12:20:26.760Z,12.71
2022-12-01T12:23:11.719Z,12.90
2022-12-01T12:25:56.506Z,13.08
2022-12-01T12:28:41.451Z,13.28
2022-12-01T12:31:26.397Z,13.31
2022-12-01T12:34:11.721Z,13.08
2022-12-01T12:36:56.767Z,12.82
2022-12-01T12:39:41.720Z,13.59
2022-12-01T12:42:26.617Z,13.44
2022-12-01T12:45:11.386Z,13.44
2022-12-01T12:47:56.414Z,13.40
2022-12-01T12:50:41.167Z,13.57
2022-12-01T12:53:25.949Z,13.30
2022-12-01T12:56:10.964Z,13.35
2022-12-01T12:58:55.703Z,14.08
2022-12-01T13:01:40.906Z,13.35
2022-12-01T13:04:25.751Z,13.15
2022-12-01T13:07:10.781Z,12.92
2022-12-01T13:09:57.481Z,13.00
2022-12-01T13:12:45.514Z,12.78
2022-12-01T13:15:30.403Z,12.89
2022-12-01T13:18:15.161Z,12.76
2022-12-01T13:21:00.020Z,12.94
2022-12-01T13:23:44.925Z,12.48
2022-12-01T13:26:30.076Z,12.62
2022-12-01T13:29:15.067Z,12.14
2022-12-01T13:31:59.957Z,13.40
2022-12-01T13:34:45.105Z,13.10
2022-12-01T13:37:29.880Z,12.97
2022-12-01T13:40:14.841Z,12.89
2022-12-01T13:42:59.517Z,12.77
2022-12-01T13:45:44.297Z,12.55
2022-12-01T13:48:29.204Z,12.63
2022-12-01T13:51:14.329Z,12.63
2022-12-01T13:53:59.191Z,13.02
2022-12-01T13:57:03.682Z,12.42
2022-12-01T13:59:49.073Z,12.73
2022-12-01T14:02:34.426Z,12.68
2022-12-01T14:05:19.832Z,12.82
2022-12-01T14:08:04.858Z,13.18
2022-12-01T14:10:50.045Z,12.97
2022-12-01T14:13:35.040Z,13.41
2022-12-01T14:16:20.132Z,13.21
2022-12-01T14:19:05.065Z,13.76
2022-12-01T14:21:49.903Z,13.46
2022-12-01T14:24:34.768Z,14.00
2022-12-01T14:27:19.735Z,14.07
2022-12-01T14:30:04.706Z,13.42
2022-12-01T14:32:49.699Z,14.21
2022-12-01T14:35:34.562Z,14.33
2022-12-01T14:38:19.621Z,13.82
2022-12-01T14:41:04.522Z,14.51
2022-12-01T14:43:49.422Z,14.52
2022-12-01T14:46:34.392Z,14.44
2022-12-01T14:49:19.289Z,14.47
2022-12-01T14:52:04.614Z,14.55
2022-12-01T14:54:49.752Z,14.40
2022-12-01T14:57:34.979Z,14.27
2022-12-01T15:00:19.880Z,14.45
2022-12-01T15:03:04.925Z,13.84
2022-12-01T15:05:49.851Z,14.69
2022-12-01T15:08:49.311Z,14.29
2022-12-01T15:11:40.002Z,14.43
2022-12-01T15:14:24.847Z,14.16
2022-12-01T15:17:09.908Z,14.51
2022-12-01T15:19:54.836Z,14.11
2022-12-01T15:22:39.793Z,14.42
2022-12-01T15:25:24.671Z,14.04
2022-12-01T15:28:09.480Z,14.41
2022-12-01T15:30:54.373Z,14.77
2022-12-01T15:33:39.155Z,15.06
2022-12-01T15:36:24.098Z,14.10
2022-12-01T15:39:09.132Z,14.17
2022-12-01T15:41:54.129Z,14.80
2022-12-01T15:44:39.505Z,14.59
2022-12-01T15:47:24.329Z,14.54
2022-12-01T15:50:09.496Z,14.68
2022-12-01T15:52:54.282Z,14.48
2022-12-01T15:55:39.236Z,14.16
2022-12-01T15:58:24.084Z,14.29
2022-12-01T16:01:09.199Z,14.52
2022-12-01T16:03:54.047Z,14.70
2022-12-01T16:06:39.006Z,14.73
2022-12-01T16:09:23.967Z,14.88
2022-12-01T16:12:08.775Z,15.17
2022-12-01T16:14:53.837Z,14.96
2022-12-01T16:17:38.582Z,15.18
2022-12-01T16:20:23.573Z,15.20
2022-12-01T16:23:08.574Z,15.55
2022-12-01T16:25:57.801Z,15.34
2022-12-01T16:28:45.603Z,15.17
2022-12-01T16:31:30.448Z,15.59
2022-12-01T16:34:43.980Z,14.98
2022-12-01T16:37:20.967Z,15.34
2022-12-01T16:40:05.987Z,15.61
2022-12-01T16:42:51.066Z,15.56
2022-12-01T16:45:36.080Z,15.97
2022-12-01T16:48:20.995Z,16.22
2022-12-01T16:51:06.541Z,16.00
2022-12-01T16:53:51.479Z,16.34
2022-12-01T16:56:36.424Z,17.07
2022-12-01T16:59:21.229Z,16.62
2022-12-01T17:02:06.191Z,16.61
2022-12-01T17:04:51.340Z,17.37
2022-12-01T17:07:36.479Z,17.75
2022-12-01T17:10:21.354Z,17.62
2022-12-01T17:13:06.329Z,17.14
2022-12-01T17:15:51.244Z,17.69
2022-12-01T17:18:35.971Z,17.24
2022-12-01T17:21:21.124Z,17.46
2022-12-01T17:24:05.916Z,17.65
2022-12-01T17:26:50.757Z,17.34
2022-12-01T17:29:35.660Z,17.62
2022-12-01T17:32:20.632Z,17.44
2022-12-01T17:35:05.632Z,17.78
2022-12-01T17:37:50.456Z,17.68
2022-12-01T17:40:35.455Z,17.75
2022-12-01T17:43:20.246Z,18.06
2022-12-01T17:46:05.217Z,18.58
2022-12-01T17:48:50.202Z,17.91
2022-12-01T17:51:35.100Z,17.88
2022-12-01T17:54:20.203Z,17.30
2022-12-01T17:57:05.072Z,17.66
2022-12-01T17:59:49.932Z,17.20
2022-12-01T18:02:34.845Z,17.83
2022-12-01T18:05:19.678Z,17.42
2022-12-01T18:08:04.481Z,17.73
2022-12-01T18:10:49.571Z,17.36
2022-12-01T18:13:34.452Z,17.00
2022-12-01T18:16:19.310Z,17.10
2022-12-01T18:19:04.297Z,17.43
2022-12-01T18:21:49.240Z,16.85
2022-12-01T18:24:34.100Z,17.24
2022-12-01T18:27:18.898Z,17.76
2022-12-01T18:30:03.816Z,17.74
2022-12-01T18:32:48.694Z,17.74
2022-12-01T18:35:33.517Z,18.46
2022-12-01T18:38:18.453Z,17.47
2022-12-01T18:41:03.401Z,17.51
2022-12-01T18:43:48.301Z,16.93
2022-12-01T18:46:33.171Z,16.55
2022-12-01T18:49:18.010Z,16.59
2022-12-01T18:52:02.813Z,17.46
2022-12-01T18:54:47.743Z,27.39
2022-12-01T18:57:32.946Z,20.70
2022-12-01T19:00:17.965Z,20.59
2022-12-01T19:03:02.795Z,23.99
2022-12-01T19:05:47.714Z,21.18
2022-12-01T19:08:32.726Z,25.05
2022-12-01T19:11:17.613Z,25.73
2022-12-01T19:14:02.488Z,17.96
2022-12-01T19:16:47.533Z,17.60
2022-12-01T19:19:37.190Z,17.12
2022-12-01T19:22:22.953Z,17.36
2022-12-01T19:25:07.649Z,16.90
2022-12-01T19:27:52.711Z,20.32
2022-12-01T19:30:37.617Z,19.88
2022-12-01T19:33:22.548Z,17.67
2022-12-01T19:36:07.366Z,18.02
2022-12-01T19:38:52.141Z,17.12
2022-12-01T19:41:37.134Z,17.21
2022-12-01T19:44:22.103Z,17.11
2022-12-01T19:47:07.070Z,17.91
2022-12-01T19:49:51.948Z,16.75
2022-12-01T19:52:37.060Z,20.40
2022-12-01T19:55:22.285Z,19.18
2022-12-01T19:58:07.333Z,17.87
2022-12-01T20:00:52.163Z,17.53
2022-12-01T20:03:37.064Z,17.87
2022-12-01T20:06:22.015Z,17.64
2022-12-01T20:09:06.885Z,17.48
2022-12-01T20:11:51.892Z,20.42
2022-12-01T20:14:36.722Z,20.04
2022-12-01T20:17:21.706Z,17.30
2022-12-01T20:20:06.621Z,18.21
2022-12-01T20:22:51.500Z,19.05
2022-12-01T20:25:36.468Z,17.53
2022-12-01T20:28:21.233Z,17.07
2022-12-01T20:31:06.526Z,16.86
2022-12-01T20:33:51.487Z,16.56
2022-12-01T20:36:36.477Z,16.11
2022-12-01T20:39:21.718Z,16.15
2022-12-01T20:42:06.602Z,16.31
2022-12-01T20:44:51.860Z,16.77
2022-12-01T20:47:36.968Z,18.40
2022-12-01T20:50:21.978Z,17.61
2022-12-01T20:53:06.859Z,16.96
2022-12-01T20:55:51.861Z,17.12
2022-12-01T20:58:37.992Z,16.61
2022-12-01T21:01:23.391Z,16.89
2022-12-01T21:04:08.143Z,16.49
2022-12-01T21:06:53.085Z,16.13
2022-12-01T21:09:37.961Z,16.54
2022-12-01T21:12:22.797Z,16.74
2022-12-01T21:15:07.648Z,15.82
2022-12-01T21:17:52.669Z,16.60
2022-12-01T21:20:37.650Z,17.54
2022-12-01T21:23:22.510Z,16.79
2022-12-01T21:26:07.437Z,16.74
2022-12-01T21:28:52.422Z,16.83
2022-12-01T21:31:37.860Z,16.17
2022-12-01T21:34:22.902Z,16.51
2022-12-01T21:37:07.647Z,15.62
2022-12-01T21:39:52.556Z,16.11
2022-12-01T21:42:37.422Z,15.81
2022-12-01T21:45:22.361Z,16.20
2022-12-01T21:48:07.153Z,15.98
2022-12-01T21:50:54.102Z,15.99
2022-12-01T21:53:39.241Z,15.65
2022-12-01T21:56:24.141Z,15.88
2022-12-01T21:59:09.026Z,15.46
2022-12-01T22:01:53.999Z,15.63
2022-12-01T22:04:38.928Z,15.38
2022-12-01T22:07:23.997Z,15.54
2022-12-01T22:10:09.358Z,15.40
2022-12-01T22:12:54.346Z,15.87
2022-12-01T22:15:39.254Z,15.40
2022-12-01T22:18:25.053Z,15.55
2022-12-01T22:21:10.062Z,15.99
2022-12-01T22:23:54.988Z,15.79
2022-12-01T22:26:39.886Z,15.82
2022-12-01T22:29:24.941Z,15.65
2022-12-01T22:32:09.886Z,15.91
2022-12-01T22:34:54.869Z,16.04
2022-12-01T22:37:39.948Z,16.00
2022-12-01T22:40:24.740Z,15.42
2022-12-01T22:43:13.908Z,15.58
2022-12-01T22:45:59.576Z,15.61
2022-12-01T22:48:44.768Z,14.69
2022-12-01T22:51:29.722Z,14.89
2022-12-01T22:54:14.605Z,14.69
2022-12-01T22:56:59.589Z,14.28
2022-12-01T22:59:44.501Z,14.25
2022-12-01T23:02:29.457Z,14.21
2022-12-01T23:05:14.350Z,13.95
2022-12-01T23:07:59.196Z,14.25
2022-12-01T23:10:44.595Z,13.90
2022-12-01T23:13:29.261Z,14.61
2022-12-01T23:16:14.407Z,14.07
2022-12-01T23:18:59.787Z,14.67
2022-12-01T23:21:44.625Z,14.88
2022-12-01T23:24:33.725Z,14.85
2022-12-01T23:27:19.392Z,13.80
2022-12-01T23:30:04.322Z,14.90
2022-12-01T23:32:49.184Z,14.92
2022-12-01T23:35:34.098Z,14.88
2022-12-01T23:38:19.310Z,14.36
2022-12-01T23:41:04.125Z,14.38
2022-12-01T23:43:49.034Z,14.35
2022-12-01T23:46:33.996Z,13.87
2022-12-01T23:49:18.881Z,14.15
2022-12-01T23:52:03.695Z,14.83
2022-12-01T23:54:48.997Z,14.92
2022-12-01T23:57:34.796Z,15.20
